createdAt,value
2022-08-03T00:00:04.130Z,0.00
2022-08-03T00:01:04.148Z,0.00
2022-08-03T00:02:04.118Z,0.00
2022-08-03T00:03:04.142Z,0.00
2022-08-03T00:04:04.104Z,0.00
2022-08-03T00:05:04.097Z,0.00
2022-08-03T00:06:05.226Z,0.00
2022-08-03T00:07:04.066Z,0.00
2022-08-03T00:08:04.061Z,0.00
2022-08-03T00:09:04.048Z,0.00
2022-08-03T00:10:04.045Z,0.00
2022-08-03T00:11:04.049Z,0.00
2022-08-03T00:12:04.030Z,0.00
2022-08-03T00:13:04.023Z,0.00
2022-08-03T00:14:03.999Z,0.00
2022-08-03T00:15:03.990Z,0.00
2022-08-03T00:16:03.981Z,0.00
2022-08-03T00:17:03.995Z,0.00
2022-08-03T00:18:03.974Z,0.00
2022-08-03T00:19:03.976Z,0.00
2022-08-03T00:20:03.950Z,0.00
2022-08-03T00:21:03.947Z,0.00
2022-08-03T00:22:03.946Z,0.00
2022-08-03T00:23:03.957Z,0.00
2022-08-03T00:24:03.927Z,0.00
2022-08-03T00:25:03.918Z,0.00
2022-08-03T00:26:03.895Z,0.00
2022-08-03T00:27:03.896Z,0.00
2022-08-03T00:28:03.876Z,0.00
2022-08-03T00:29:04.170Z,0.00
2022-08-03T00:30:03.882Z,0.00
2022-08-03T00:31:03.857Z,0.00
2022-08-03T00:32:03.846Z,0.00
2022-08-03T00:33:03.889Z,0.00
2022-08-03T00:34:04.280Z,0.00
2022-08-03T00:35:08.124Z,0.00
2022-08-03T00:36:03.824Z,0.00
2022-08-03T00:37:03.812Z,0.00
2022-08-03T00:38:03.804Z,0.00
2022-08-03T00:39:03.790Z,0.00
2022-08-03T00:40:03.793Z,0.00
2022-08-03T00:41:03.791Z,0.00
2022-08-03T00:42:03.762Z,0.00
2022-08-03T00:43:03.766Z,0.00
2022-08-03T00:44:03.745Z,0.00
2022-08-03T00:45:03.735Z,0.00
2022-08-03T00:46:03.725Z,0.00
2022-08-03T00:47:03.744Z,0.00
2022-08-03T00:48:03.718Z,0.00
2022-08-03T00:49:03.870Z,0.00
2022-08-03T00:50:03.700Z,0.00
2022-08-03T00:51:03.701Z,0.00
2022-08-03T00:52:09.542Z,0.00
2022-08-03T00:53:03.697Z,0.00
2022-08-03T00:54:03.671Z,0.00
2022-08-03T00:55:03.648Z,0.00
2022-08-03T00:56:03.654Z,0.00
2022-08-03T00:57:03.656Z,0.00
2022-08-03T00:58:03.633Z,0.00
2022-08-03T00:59:03.654Z,0.00
2022-08-03T01:00:03.610Z,0.00
2022-08-03T01:01:03.669Z,0.00
2022-08-03T01:02:03.605Z,0.00
2022-08-03T01:03:03.597Z,0.00
2022-08-03T01:04:03.573Z,0.00
2022-08-03T01:05:03.595Z,0.00
2022-08-03T01:06:03.566Z,0.00
2022-08-03T01:07:03.552Z,0.00
2022-08-03T01:08:03.537Z,0.00
2022-08-03T01:09:03.546Z,0.00
2022-08-03T01:10:03.529Z,0.00
2022-08-03T01:11:03.566Z,0.00
2022-08-03T01:12:03.505Z,0.00
2022-08-03T01:13:03.499Z,0.00
2022-08-03T01:14:18.227Z,0.00
2022-08-03T01:15:03.483Z,0.00
2022-08-03T01:16:03.487Z,0.00
2022-08-03T01:17:03.483Z,0.00
2022-08-03T01:18:03.463Z,0.00
2022-08-03T01:19:03.450Z,0.00
2022-08-03T01:20:03.433Z,0.00
2022-08-03T01:21:03.442Z,0.00
2022-08-03T01:22:03.417Z,0.00
2022-08-03T01:23:03.431Z,0.00
2022-08-03T01:24:03.414Z,0.00
2022-08-03T01:25:03.400Z,0.00
2022-08-03T01:26:03.394Z,0.00
2022-08-03T01:27:03.518Z,0.00
2022-08-03T01:28:03.362Z,0.00
2022-08-03T01:29:03.397Z,0.00
2022-08-03T01:30:03.352Z,0.00
2022-08-03T01:31:03.361Z,0.00
2022-08-03T01:32:59.599Z,0.00
2022-08-03T01:33:03.607Z,0.00
2022-08-03T01:34:03.327Z,0.00
2022-08-03T01:35:03.342Z,0.00
2022-08-03T01:36:03.311Z,0.00
2022-08-03T01:37:03.295Z,0.00
2022-08-03T01:38:03.289Z,0.00
2022-08-03T01:39:03.276Z,0.00
2022-08-03T01:40:03.270Z,0.00
2022-08-03T01:41:03.268Z,0.00
2022-08-03T01:42:03.278Z,0.00
2022-08-03T01:43:03.262Z,0.00
2022-08-03T01:44:29.965Z,0.00
2022-08-03T01:45:03.228Z,0.00
2022-08-03T01:46:03.210Z,0.00
2022-08-03T01:47:03.225Z,0.00
2022-08-03T01:48:03.204Z,0.00
2022-08-03T01:49:09.127Z,0.00
2022-08-03T01:50:03.184Z,0.00
2022-08-03T01:51:03.185Z,0.00
2022-08-03T01:52:05.369Z,0.00
2022-08-03T01:53:03.186Z,0.00
2022-08-03T01:54:03.156Z,0.00
2022-08-03T01:55:03.133Z,0.00
2022-08-03T01:56:03.137Z,0.00
2022-08-03T01:57:03.125Z,0.00
2022-08-03T01:58:05.720Z,0.00
2022-08-03T01:59:03.105Z,0.00
2022-08-03T02:00:03.087Z,0.00
2022-08-03T02:01:03.150Z,0.00
2022-08-03T02:02:15.649Z,0.00
2022-08-03T02:03:03.082Z,0.00
2022-08-03T02:04:03.089Z,0.00
2022-08-03T02:05:03.085Z,0.00
2022-08-03T02:06:55.591Z,0.00
2022-08-03T02:07:03.547Z,0.00
2022-08-03T02:08:03.019Z,0.00
2022-08-03T02:09:03.034Z,0.00
2022-08-03T02:10:03.013Z,0.00
2022-08-03T02:11:03.030Z,0.00
2022-08-03T02:12:02.994Z,0.00
2022-08-03T02:13:02.981Z,0.00
2022-08-03T02:14:02.973Z,0.00
2022-08-03T02:15:02.961Z,0.00
2022-08-03T02:16:02.965Z,0.00
2022-08-03T02:17:02.978Z,0.00
2022-08-03T02:18:02.932Z,0.00
2022-08-03T02:19:02.932Z,0.00
2022-08-03T02:20:02.928Z,0.00
2022-08-03T02:21:05.411Z,0.00
2022-08-03T02:22:02.916Z,0.00
2022-08-03T02:23:02.927Z,0.00
2022-08-03T02:24:02.883Z,0.00
2022-08-03T02:25:02.892Z,0.00
2022-08-03T02:26:02.865Z,0.00
2022-08-03T02:27:02.871Z,0.00
2022-08-03T02:28:02.860Z,0.00
2022-08-03T02:29:02.861Z,0.00
2022-08-03T02:30:02.902Z,0.00
2022-08-03T02:31:02.840Z,0.00
2022-08-03T02:32:02.809Z,0.00
2022-08-03T02:33:02.808Z,0.00
2022-08-03T02:34:02.798Z,0.00
2022-08-03T02:35:02.833Z,0.00
2022-08-03T02:36:02.799Z,0.00
2022-08-03T02:37:02.779Z,0.00
2022-08-03T02:38:02.776Z,0.00
2022-08-03T02:39:02.769Z,0.00
2022-08-03T02:40:02.741Z,0.00
2022-08-03T02:41:02.752Z,0.00
2022-08-03T02:42:03.273Z,0.00
2022-08-03T02:43:02.723Z,0.00
2022-08-03T02:44:06.938Z,0.00
2022-08-03T02:45:02.717Z,0.00
2022-08-03T02:46:02.706Z,0.00
2022-08-03T02:47:02.717Z,0.00
2022-08-03T02:48:02.691Z,0.00
2022-08-03T02:49:41.137Z,0.00
2022-08-03T02:50:02.725Z,0.00
2022-08-03T02:51:02.669Z,0.00
2022-08-03T02:52:02.643Z,0.00
2022-08-03T02:53:02.657Z,0.00
2022-08-03T02:54:02.631Z,0.00
2022-08-03T02:55:02.631Z,0.00
2022-08-03T02:56:02.608Z,0.00
2022-08-03T02:57:02.612Z,0.00
2022-08-03T02:58:02.603Z,0.00
2022-08-03T02:59:02.603Z,0.00
2022-08-03T03:00:02.584Z,0.00
2022-08-03T03:01:02.606Z,0.00
2022-08-03T03:02:02.560Z,0.00
2022-08-03T03:03:02.556Z,0.00
2022-08-03T03:04:02.555Z,0.00
2022-08-03T03:05:56.042Z,0.00
2022-08-03T03:06:05.609Z,0.00
2022-08-03T03:07:03.724Z,0.00
2022-08-03T03:08:02.504Z,0.00
2022-08-03T03:09:02.503Z,0.00
2022-08-03T03:10:02.508Z,0.00
2022-08-03T03:11:02.494Z,0.00
2022-08-03T03:12:02.476Z,0.00
2022-08-03T03:13:02.465Z,0.00
2022-08-03T03:14:02.456Z,0.00
2022-08-03T03:15:02.449Z,0.00
2022-08-03T03:16:02.436Z,0.00
2022-08-03T03:17:02.467Z,0.00
2022-08-03T03:18:02.439Z,0.00
2022-08-03T03:19:02.408Z,0.00
2022-08-03T03:20:02.399Z,0.00
2022-08-03T03:21:02.403Z,0.00
2022-08-03T03:22:02.390Z,0.00
2022-08-03T03:23:02.389Z,0.00
2022-08-03T03:24:02.371Z,0.00
2022-08-03T03:25:02.365Z,0.00
2022-08-03T03:26:02.392Z,0.00
2022-08-03T03:27:02.339Z,0.00
2022-08-03T03:28:02.335Z,0.00
2022-08-03T03:29:02.355Z,0.00
2022-08-03T03:30:02.321Z,0.00
2022-08-03T03:31:02.305Z,0.00
2022-08-03T03:32:02.578Z,0.00
2022-08-03T03:33:02.300Z,0.00
2022-08-03T03:34:02.286Z,0.00
2022-08-03T03:35:02.305Z,0.00
2022-08-03T03:36:02.264Z,0.00
2022-08-03T03:37:02.255Z,0.00
2022-08-03T03:38:02.261Z,0.00
2022-08-03T03:39:15.676Z,0.00
2022-08-03T03:40:02.250Z,0.00
2022-08-03T03:41:02.250Z,0.00
2022-08-03T03:42:02.218Z,0.00
2022-08-03T03:43:02.197Z,0.00
2022-08-03T03:44:02.211Z,0.00
2022-08-03T03:45:02.187Z,0.00
2022-08-03T03:46:02.178Z,0.00
2022-08-03T03:47:02.193Z,0.00
2022-08-03T03:48:02.170Z,0.00
2022-08-03T03:49:02.187Z,0.00
2022-08-03T03:50:02.150Z,0.00
2022-08-03T03:51:02.153Z,0.00
2022-08-03T03:52:02.143Z,0.00
2022-08-03T03:53:02.146Z,0.00
2022-08-03T03:54:02.113Z,0.00
2022-08-03T03:55:02.118Z,0.00
2022-08-03T03:56:03.083Z,0.00
2022-08-03T03:57:02.096Z,0.00
2022-08-03T03:58:02.087Z,0.00
2022-08-03T03:59:02.353Z,0.00
2022-08-03T04:00:02.076Z,0.00
2022-08-03T04:01:02.162Z,0.00
2022-08-03T04:02:02.059Z,0.00
2022-08-03T04:03:02.039Z,0.00
2022-08-03T04:04:02.040Z,0.00
2022-08-03T04:05:02.036Z,0.00
2022-08-03T04:06:02.022Z,0.00
2022-08-03T04:07:02.012Z,0.00
2022-08-03T04:08:02.001Z,0.00
2022-08-03T04:09:01.980Z,0.00
2022-08-03T04:10:14.058Z,0.00
2022-08-03T04:11:01.992Z,0.00
2022-08-03T04:12:01.973Z,0.00
2022-08-03T04:13:01.961Z,0.00
2022-08-03T04:14:02.286Z,0.00
2022-08-03T04:15:01.930Z,0.00
2022-08-03T04:16:01.934Z,0.00
2022-08-03T04:17:01.946Z,0.00
2022-08-03T04:18:01.915Z,5.62
2022-08-03T04:19:01.923Z,5.62
2022-08-03T04:20:01.897Z,5.62
2022-08-03T04:21:01.873Z,5.62
2022-08-03T04:22:01.885Z,5.62
2022-08-03T04:23:01.894Z,5.62
2022-08-03T04:24:01.944Z,5.62
2022-08-03T04:25:01.844Z,5.62
2022-08-03T04:26:01.856Z,5.62
2022-08-03T04:27:01.841Z,5.62
2022-08-03T04:28:28.343Z,5.62
2022-08-03T04:29:01.828Z,5.62
2022-08-03T04:30:01.820Z,5.62
2022-08-03T04:31:01.808Z,5.62
2022-08-03T04:32:02.073Z,5.62
2022-08-03T04:33:01.789Z,5.62
2022-08-03T04:34:01.782Z,5.62
2022-08-03T04:35:01.779Z,5.62
2022-08-03T04:36:03.635Z,5.62
2022-08-03T04:37:01.754Z,11.25
2022-08-03T04:38:01.753Z,11.25
2022-08-03T04:39:01.722Z,11.25
2022-08-03T04:40:01.721Z,11.25
2022-08-03T04:41:01.733Z,11.25
2022-08-03T04:42:07.644Z,11.25
2022-08-03T04:43:01.695Z,11.25
2022-08-03T04:44:01.700Z,11.25
2022-08-03T04:45:02.028Z,11.25
2022-08-03T04:46:01.693Z,11.25
2022-08-03T04:47:01.664Z,16.88
2022-08-03T04:48:02.936Z,22.50
2022-08-03T04:49:01.662Z,28.12
2022-08-03T04:50:01.637Z,39.38
2022-08-03T04:51:01.623Z,45.00
2022-08-03T04:52:01.616Z,50.62
2022-08-03T04:53:01.637Z,56.25
2022-08-03T04:54:01.597Z,56.25
2022-08-03T04:55:01.590Z,61.88
2022-08-03T04:56:01.603Z,61.88
2022-08-03T04:57:01.586Z,61.88
2022-08-03T04:58:01.572Z,61.88
2022-08-03T04:59:01.559Z,67.50
2022-08-03T05:00:03.348Z,67.50
2022-08-03T05:01:01.544Z,67.50
2022-08-03T05:02:01.637Z,73.12
2022-08-03T05:03:01.520Z,73.12
2022-08-03T05:04:01.528Z,73.12
2022-08-03T05:05:01.530Z,73.12
2022-08-03T05:06:10.979Z,73.12
2022-08-03T05:07:11.587Z,78.75
2022-08-03T05:08:01.483Z,78.75
2022-08-03T05:09:01.478Z,84.38
2022-08-03T05:10:03.288Z,84.38
2022-08-03T05:11:01.475Z,84.38
2022-08-03T05:12:01.460Z,84.38
2022-08-03T05:13:01.436Z,84.38
2022-08-03T05:14:01.439Z,84.38
2022-08-03T05:15:01.431Z,90.00
2022-08-03T05:16:01.420Z,90.00
2022-08-03T05:17:01.418Z,95.62
2022-08-03T05:18:01.395Z,95.62
2022-08-03T05:19:01.379Z,101.25
2022-08-03T05:20:01.378Z,101.25
2022-08-03T05:21:01.359Z,106.88
2022-08-03T05:22:01.373Z,106.88
2022-08-03T05:23:01.373Z,112.50
2022-08-03T05:24:01.344Z,118.12
2022-08-03T05:25:01.332Z,118.12
2022-08-03T05:26:01.325Z,118.12
2022-08-03T05:27:01.326Z,118.12
2022-08-03T05:28:01.332Z,123.75
2022-08-03T05:29:01.328Z,129.38
2022-08-03T05:30:30.907Z,129.38
2022-08-03T05:31:01.274Z,129.38
2022-08-03T05:32:06.226Z,129.38
2022-08-03T05:33:01.275Z,135.00
2022-08-03T05:34:01.268Z,135.00
2022-08-03T05:35:01.244Z,135.00
2022-08-03T05:36:04.310Z,129.38
2022-08-03T05:37:01.226Z,118.12
2022-08-03T05:38:01.216Z,101.25
2022-08-03T05:39:02.942Z,84.38
2022-08-03T05:40:01.207Z,84.38
2022-08-03T05:41:20.939Z,78.75
2022-08-03T05:42:01.188Z,78.75
2022-08-03T05:43:01.188Z,90.00
2022-08-03T05:44:01.182Z,106.88
2022-08-03T05:45:01.172Z,123.75
2022-08-03T05:46:11.750Z,135.00
2022-08-03T05:47:01.160Z,135.00
2022-08-03T05:48:01.144Z,135.00
2022-08-03T05:49:01.173Z,140.62
2022-08-03T05:50:01.121Z,140.62
2022-08-03T05:51:01.111Z,140.62
2022-08-03T05:52:13.364Z,140.62
2022-08-03T05:53:01.123Z,146.25
2022-08-03T05:54:01.098Z,146.25
2022-08-03T05:55:01.094Z,146.25
2022-08-03T05:56:13.206Z,146.25
2022-08-03T05:57:01.070Z,146.25
2022-08-03T05:58:01.055Z,151.88
2022-08-03T05:59:16.290Z,151.88
2022-08-03T06:00:01.058Z,151.88
2022-08-03T06:01:01.027Z,151.88
2022-08-03T06:02:01.139Z,151.88
2022-08-03T06:03:01.022Z,151.88
2022-08-03T06:04:01.019Z,157.50
2022-08-03T06:05:01.008Z,157.50
2022-08-03T06:06:00.991Z,157.50
2022-08-03T06:07:00.978Z,157.50
2022-08-03T06:08:00.984Z,163.12
2022-08-03T06:09:00.963Z,163.12
2022-08-03T06:10:36.657Z,163.12
2022-08-03T06:11:00.976Z,163.12
2022-08-03T06:12:00.941Z,163.12
2022-08-03T06:13:00.936Z,163.12
2022-08-03T06:14:00.939Z,163.12
2022-08-03T06:15:00.923Z,168.75
2022-08-03T06:16:00.916Z,168.75
2022-08-03T06:17:00.928Z,174.38
2022-08-03T06:18:02.190Z,174.38
2022-08-03T06:19:00.897Z,180.00
2022-08-03T06:20:00.876Z,180.00
2022-08-03T06:21:09.699Z,180.00
2022-08-03T06:22:00.871Z,191.25
2022-08-03T06:23:01.482Z,185.62
2022-08-03T06:24:00.844Z,185.62
2022-08-03T06:25:04.932Z,185.62
2022-08-03T06:26:00.841Z,185.62
2022-08-03T06:27:00.822Z,191.25
2022-08-03T06:28:00.824Z,191.25
2022-08-03T06:29:00.912Z,191.25
2022-08-03T06:30:00.797Z,196.88
2022-08-03T06:31:00.781Z,196.88
2022-08-03T06:32:00.781Z,196.88
2022-08-03T06:33:00.768Z,202.50
2022-08-03T06:34:32.275Z,202.50
2022-08-03T06:35:00.782Z,208.12
2022-08-03T06:36:00.742Z,208.12
2022-08-03T06:37:02.308Z,208.12
2022-08-03T06:38:00.747Z,213.75
2022-08-03T06:39:00.735Z,213.75
2022-08-03T06:40:00.727Z,213.75
2022-08-03T06:41:00.723Z,219.38
2022-08-03T06:42:00.695Z,219.38
2022-08-03T06:43:00.685Z,219.38
2022-08-03T06:44:03.734Z,225.00
2022-08-03T06:45:00.681Z,225.00
2022-08-03T06:46:00.681Z,225.00
2022-08-03T06:47:00.689Z,225.00
2022-08-03T06:48:00.654Z,230.62
2022-08-03T06:49:00.702Z,230.62
2022-08-03T06:50:12.932Z,230.62
2022-08-03T06:51:00.619Z,236.25
2022-08-03T06:52:03.347Z,236.25
2022-08-03T06:53:00.621Z,236.25
2022-08-03T06:54:00.602Z,241.88
2022-08-03T06:55:00.598Z,241.88
2022-08-03T06:56:00.590Z,247.50
2022-08-03T06:57:00.572Z,247.50
2022-08-03T06:58:03.616Z,247.50
2022-08-03T06:59:00.598Z,253.12
2022-08-03T07:00:08.643Z,253.12
2022-08-03T07:01:00.602Z,253.12
2022-08-03T07:02:00.534Z,253.12
2022-08-03T07:03:00.524Z,258.75
2022-08-03T07:04:00.550Z,258.75
2022-08-03T07:05:00.539Z,258.75
2022-08-03T07:06:00.521Z,258.75
2022-08-03T07:07:00.496Z,258.75
2022-08-03T07:08:00.488Z,258.75
2022-08-03T07:09:00.477Z,258.75
2022-08-03T07:10:00.479Z,264.38
2022-08-03T07:11:00.479Z,264.38
2022-08-03T07:12:00.478Z,270.00
2022-08-03T07:13:00.461Z,270.00
2022-08-03T07:14:00.453Z,275.62
2022-08-03T07:15:02.214Z,275.62
2022-08-03T07:16:00.421Z,281.25
2022-08-03T07:17:00.441Z,286.88
2022-08-03T07:18:00.413Z,292.50
2022-08-03T07:19:00.416Z,286.88
2022-08-03T07:20:00.407Z,298.12
2022-08-03T07:21:00.405Z,303.75
2022-08-03T07:22:02.392Z,309.38
2022-08-03T07:23:00.397Z,303.75
2022-08-03T07:24:00.378Z,315.00
2022-08-03T07:25:00.374Z,320.62
2022-08-03T07:26:00.359Z,320.62
2022-08-03T07:27:00.337Z,326.25
2022-08-03T07:28:00.339Z,326.25
2022-08-03T07:29:00.337Z,326.25
2022-08-03T07:30:00.323Z,326.25
2022-08-03T07:31:00.311Z,331.88
2022-08-03T07:32:00.318Z,337.50
2022-08-03T07:33:00.310Z,331.88
2022-08-03T07:34:00.282Z,337.50
2022-08-03T07:35:01.382Z,337.50
2022-08-03T07:36:00.269Z,337.50
2022-08-03T07:37:00.274Z,348.75
2022-08-03T07:38:00.251Z,343.12
2022-08-03T07:39:00.241Z,343.12
2022-08-03T07:40:00.235Z,337.50
2022-08-03T07:41:00.253Z,337.50
2022-08-03T07:42:00.237Z,337.50
2022-08-03T07:43:00.231Z,337.50
2022-08-03T07:44:00.217Z,337.50
2022-08-03T07:45:00.221Z,343.12
2022-08-03T07:46:00.184Z,343.12
2022-08-03T07:47:00.198Z,343.12
2022-08-03T07:48:00.167Z,343.12
2022-08-03T07:49:00.261Z,343.12
2022-08-03T07:50:00.185Z,331.88
2022-08-03T07:51:00.163Z,343.12
2022-08-03T07:52:00.151Z,331.88
2022-08-03T07:53:00.150Z,326.25
2022-08-03T07:54:00.135Z,360.00
2022-08-03T07:55:00.113Z,365.62
2022-08-03T07:56:00.112Z,371.25
2022-08-03T07:57:00.090Z,376.88
2022-08-03T07:58:00.095Z,382.50
2022-08-03T07:59:00.091Z,399.38
2022-08-03T08:00:02.468Z,461.25
2022-08-03T08:01:00.123Z,506.25
2022-08-03T08:02:00.052Z,444.38
2022-08-03T08:03:00.045Z,433.12
2022-08-03T08:04:00.034Z,410.62
2022-08-03T08:05:04.972Z,371.25
2022-08-03T08:06:00.023Z,365.62
2022-08-03T08:07:00.028Z,360.00
2022-08-03T08:08:00.064Z,360.00
2022-08-03T08:09:00.013Z,360.00
2022-08-03T08:09:59.990Z,360.00
2022-08-03T08:11:00.014Z,365.62
2022-08-03T08:11:59.990Z,365.62
2022-08-03T08:12:59.957Z,371.25
2022-08-03T08:13:59.948Z,371.25
2022-08-03T08:14:59.939Z,371.25
2022-08-03T08:15:59.945Z,371.25
2022-08-03T08:17:03.303Z,371.25
2022-08-03T08:17:59.910Z,371.25
2022-08-03T08:18:59.901Z,371.25
2022-08-03T08:19:59.892Z,371.25
2022-08-03T08:20:59.889Z,376.88
2022-08-03T08:22:01.988Z,376.88
2022-08-03T08:23:01.131Z,376.88
2022-08-03T08:23:59.852Z,376.88
2022-08-03T08:25:01.078Z,382.50
2022-08-03T08:25:59.847Z,388.12
2022-08-03T08:26:59.848Z,382.50
2022-08-03T08:28:30.434Z,393.75
2022-08-03T08:28:59.836Z,399.38
2022-08-03T08:30:07.280Z,388.12
2022-08-03T08:30:59.796Z,388.12
2022-08-03T08:31:59.786Z,382.50
2022-08-03T08:32:59.801Z,376.88
2022-08-03T08:34:04.401Z,388.12
2022-08-03T08:34:59.792Z,382.50
2022-08-03T08:35:59.759Z,393.75
2022-08-03T08:36:59.753Z,410.62
2022-08-03T08:37:59.738Z,410.62
2022-08-03T08:38:59.731Z,405.00
2022-08-03T08:39:59.735Z,399.38
2022-08-03T08:40:59.750Z,360.00
2022-08-03T08:41:59.716Z,405.00
2022-08-03T08:42:59.703Z,405.00
2022-08-03T08:44:00.214Z,410.62
2022-08-03T08:44:59.682Z,416.25
2022-08-03T08:45:59.672Z,421.88
2022-08-03T08:46:59.694Z,433.12
2022-08-03T08:48:02.544Z,433.12
2022-08-03T08:48:59.747Z,438.75
2022-08-03T08:50:09.670Z,438.75
2022-08-03T08:50:59.647Z,444.38
2022-08-03T08:52:01.168Z,444.38
2022-08-03T08:52:59.727Z,444.38
2022-08-03T08:53:59.619Z,450.00
2022-08-03T08:55:00.191Z,444.38
2022-08-03T08:56:00.769Z,444.38
2022-08-03T08:56:59.591Z,450.00
2022-08-03T08:57:59.569Z,455.62
2022-08-03T08:58:59.589Z,461.25
2022-08-03T08:59:59.565Z,466.88
2022-08-03T09:00:59.557Z,472.50
2022-08-03T09:01:59.540Z,472.50
2022-08-03T09:04:25.475Z,472.50
2022-08-03T09:05:54.663Z,472.50
2022-08-03T09:06:25.462Z,472.50
2022-08-03T09:07:25.445Z,472.50
2022-08-03T09:08:25.446Z,466.88
2022-08-03T09:10:05.917Z,461.25
2022-08-03T09:10:25.447Z,455.62
2022-08-03T09:11:54.477Z,450.00
2022-08-03T09:12:41.941Z,444.38
2022-08-03T09:13:25.399Z,438.75
2022-08-03T09:14:36.550Z,433.12
2022-08-03T09:15:25.402Z,427.50
2022-08-03T09:16:25.392Z,416.25
2022-08-03T09:17:25.373Z,405.00
2022-08-03T09:18:25.359Z,405.00
2022-08-03T09:19:25.354Z,399.38
2022-08-03T09:20:25.363Z,399.38
2022-08-03T09:21:33.537Z,399.38
2022-08-03T09:22:25.345Z,393.75
2022-08-03T09:23:51.812Z,393.75
2022-08-03T09:24:40.582Z,388.12
2022-08-03T09:25:25.413Z,382.50
2022-08-03T09:26:25.294Z,388.12
2022-08-03T09:27:26.172Z,388.12
2022-08-03T09:29:01.328Z,382.50
2022-08-03T09:29:25.264Z,382.50
2022-08-03T09:30:33.742Z,376.88
2022-08-03T09:31:25.248Z,371.25
2022-08-03T09:32:25.246Z,371.25
2022-08-03T09:33:25.229Z,365.62
2022-08-03T09:34:25.520Z,354.38
2022-08-03T09:35:51.515Z,348.75
2022-08-03T09:36:25.222Z,343.12
2022-08-03T09:38:06.002Z,331.88
2022-08-03T09:38:25.189Z,326.25
2022-08-03T09:39:41.191Z,320.62
2022-08-03T09:40:25.189Z,315.00
2022-08-03T09:41:25.163Z,303.75
2022-08-03T09:42:25.174Z,298.12
2022-08-03T09:43:25.155Z,292.50
2022-08-03T09:44:26.205Z,286.88
2022-08-03T09:45:25.138Z,275.62
2022-08-03T09:46:25.157Z,275.62
2022-08-03T09:47:28.207Z,270.00
2022-08-03T09:48:25.117Z,264.38
2022-08-03T09:49:25.412Z,258.75
2022-08-03T09:50:25.099Z,253.12
2022-08-03T09:52:17.950Z,236.25
2022-08-03T09:52:37.731Z,241.88
2022-08-03T09:53:25.057Z,241.88
2022-08-03T09:54:25.048Z,236.25
2022-08-03T09:56:33.263Z,230.62
2022-08-03T09:56:35.002Z,230.62
2022-08-03T09:57:25.031Z,225.00
2022-08-03T09:58:25.042Z,225.00
2022-08-03T09:59:25.020Z,219.38
2022-08-03T10:00:24.998Z,219.38
2022-08-03T10:01:25.574Z,213.75
2022-08-03T10:02:24.994Z,213.75
2022-08-03T10:03:24.985Z,208.12
2022-08-03T10:04:24.982Z,208.12
2022-08-03T10:05:25.003Z,202.50
2022-08-03T10:06:28.819Z,202.50
2022-08-03T10:07:24.940Z,196.88
2022-08-03T10:08:24.946Z,196.88
2022-08-03T10:09:24.918Z,191.25
2022-08-03T10:10:30.971Z,191.25
2022-08-03T10:11:24.899Z,185.62
2022-08-03T10:12:24.886Z,185.62
2022-08-03T10:13:24.890Z,185.62
2022-08-03T10:14:24.867Z,180.00
2022-08-03T10:16:23.399Z,180.00
2022-08-03T10:16:25.889Z,180.00
2022-08-03T10:17:24.853Z,174.38
2022-08-03T10:18:24.830Z,174.38
2022-08-03T10:19:24.819Z,174.38
2022-08-03T10:20:24.823Z,174.38
2022-08-03T10:21:24.810Z,174.38
2022-08-03T10:22:24.808Z,168.75
2022-08-03T10:23:24.803Z,168.75
2022-08-03T10:24:24.785Z,168.75
2022-08-03T10:25:24.772Z,168.75
2022-08-03T10:26:24.767Z,168.75
2022-08-03T10:27:24.768Z,163.12
2022-08-03T10:28:24.770Z,163.12
2022-08-03T10:29:24.748Z,163.12
2022-08-03T10:30:26.214Z,163.12
2022-08-03T10:31:24.734Z,157.50
2022-08-03T10:32:24.703Z,157.50
2022-08-03T10:33:50.158Z,157.50
2022-08-03T10:34:24.701Z,151.88
2022-08-03T10:35:24.713Z,151.88
2022-08-03T10:36:24.678Z,151.88
2022-08-03T10:37:24.659Z,151.88
2022-08-03T10:38:24.648Z,151.88
2022-08-03T10:39:24.660Z,146.25
2022-08-03T10:40:47.534Z,146.25
2022-08-03T10:41:24.631Z,146.25
2022-08-03T10:42:24.625Z,146.25
2022-08-03T10:43:24.623Z,140.62
2022-08-03T10:44:24.619Z,140.62
2022-08-03T10:45:24.593Z,140.62
2022-08-03T10:46:24.583Z,140.62
2022-08-03T10:47:24.573Z,140.62
2022-08-03T10:48:24.568Z,135.00
2022-08-03T10:49:34.008Z,135.00
2022-08-03T10:50:24.546Z,135.00
2022-08-03T10:51:24.557Z,135.00
2022-08-03T10:52:31.446Z,135.00
2022-08-03T10:53:24.527Z,135.00
2022-08-03T10:54:24.508Z,129.38
2022-08-03T10:55:24.522Z,129.38
2022-08-03T10:56:41.576Z,129.38
2022-08-03T10:57:24.634Z,129.38
2022-08-03T10:58:30.365Z,129.38
2022-08-03T10:59:27.912Z,129.38
2022-08-03T11:00:24.543Z,129.38
2022-08-03T11:01:24.500Z,123.75
2022-08-03T11:02:24.442Z,123.75
2022-08-03T11:03:24.433Z,123.75
2022-08-03T11:04:24.433Z,123.75
2022-08-03T11:05:24.412Z,123.75
2022-08-03T11:06:24.407Z,123.75
2022-08-03T11:07:24.394Z,118.12
2022-08-03T11:08:24.385Z,118.12
2022-08-03T11:09:24.374Z,118.12
2022-08-03T11:10:24.399Z,118.12
2022-08-03T11:11:24.357Z,118.12
2022-08-03T11:12:30.017Z,118.12
2022-08-03T11:13:24.350Z,112.50
2022-08-03T11:14:24.346Z,112.50
2022-08-03T11:15:24.340Z,112.50
2022-08-03T11:16:24.341Z,112.50
2022-08-03T11:17:24.307Z,112.50
2022-08-03T11:18:26.886Z,112.50
2022-08-03T11:19:24.290Z,112.50
2022-08-03T11:20:24.270Z,106.88
2022-08-03T11:21:27.685Z,106.88
2022-08-03T11:22:24.284Z,106.88
2022-08-03T11:24:04.913Z,106.88
2022-08-03T11:24:24.246Z,106.88
2022-08-03T11:25:54.027Z,106.88
2022-08-03T11:26:24.220Z,106.88
2022-08-03T11:27:24.214Z,106.88
2022-08-03T11:28:24.219Z,101.25
2022-08-03T11:29:24.208Z,101.25
2022-08-03T11:30:25.896Z,101.25
2022-08-03T11:31:49.796Z,101.25
2022-08-03T11:32:24.179Z,101.25
2022-08-03T11:33:24.157Z,101.25
2022-08-03T11:34:24.167Z,101.25
2022-08-03T11:35:24.146Z,101.25
2022-08-03T11:36:32.507Z,101.25
2022-08-03T11:37:27.598Z,101.25
2022-08-03T11:38:24.122Z,101.25
2022-08-03T11:39:24.121Z,101.25
2022-08-03T11:40:24.114Z,101.25
2022-08-03T11:41:24.103Z,101.25
2022-08-03T11:42:24.091Z,101.25
2022-08-03T11:43:26.689Z,101.25
2022-08-03T11:44:24.062Z,101.25
2022-08-03T11:45:24.067Z,101.25
2022-08-03T11:46:28.555Z,101.25
2022-08-03T11:47:24.056Z,95.62
2022-08-03T11:48:24.042Z,95.62
2022-08-03T11:49:24.061Z,95.62
2022-08-03T11:50:24.176Z,95.62
2022-08-03T11:51:24.007Z,95.62
2022-08-03T11:52:26.677Z,95.62
2022-08-03T11:53:23.987Z,95.62
2022-08-03T11:54:23.992Z,95.62
2022-08-03T11:55:26.762Z,95.62
2022-08-03T11:56:23.971Z,95.62
2022-08-03T11:57:23.958Z,90.00
2022-08-03T11:59:00.985Z,90.00
2022-08-03T11:59:23.940Z,90.00
2022-08-03T12:00:23.920Z,90.00
2022-08-03T12:01:23.935Z,90.00
2022-08-03T12:02:23.915Z,90.00
2022-08-03T12:03:23.987Z,90.00
2022-08-03T12:04:23.902Z,90.00
2022-08-03T12:05:23.897Z,90.00
2022-08-03T12:06:23.871Z,90.00
2022-08-03T12:08:02.532Z,84.38
2022-08-03T12:08:23.867Z,84.38
2022-08-03T12:09:23.849Z,84.38
2022-08-03T12:10:23.849Z,84.38
2022-08-03T12:11:23.828Z,84.38
2022-08-03T12:12:23.818Z,84.38
2022-08-03T12:14:44.982Z,84.38
2022-08-03T12:14:49.019Z,84.38
2022-08-03T12:15:23.798Z,84.38
2022-08-03T12:16:23.816Z,84.38
2022-08-03T12:17:23.792Z,84.38
2022-08-03T12:18:23.759Z,84.38
2022-08-03T12:19:23.760Z,78.75
2022-08-03T12:20:34.450Z,78.75
2022-08-03T12:21:23.740Z,78.75
2022-08-03T12:22:23.746Z,78.75
2022-08-03T12:23:23.722Z,78.75
2022-08-03T12:24:23.714Z,78.75
2022-08-03T12:25:38.454Z,78.75
2022-08-03T12:26:23.707Z,78.75
2022-08-03T12:27:23.705Z,78.75
2022-08-03T12:28:35.950Z,78.75
2022-08-03T12:29:23.687Z,78.75
2022-08-03T12:30:23.669Z,73.12
2022-08-03T12:31:23.656Z,73.12
2022-08-03T12:32:23.650Z,73.12
2022-08-03T12:33:23.651Z,73.12
2022-08-03T12:34:23.698Z,73.12
2022-08-03T12:35:23.619Z,73.12
2022-08-03T12:36:23.622Z,73.12
2022-08-03T12:37:23.973Z,73.12
2022-08-03T12:38:23.588Z,73.12
2022-08-03T12:39:23.596Z,73.12
2022-08-03T12:40:27.970Z,73.12
2022-08-03T12:41:23.561Z,73.12
2022-08-03T12:42:23.551Z,67.50
2022-08-03T12:43:23.542Z,67.50
2022-08-03T12:44:23.533Z,67.50
2022-08-03T12:45:23.536Z,67.50
2022-08-03T12:46:23.537Z,67.50
2022-08-03T12:47:23.517Z,67.50
2022-08-03T12:48:23.567Z,67.50
2022-08-03T12:49:23.529Z,67.50
2022-08-03T12:50:23.489Z,67.50